sensor_id;sensor_type;location;lat;lon;timestamp;temperature;humidity
17571;DHT22;8903;52.220;20.978;2022-07-23T00:00:20;24.30;99.60
17571;DHT22;8903;52.220;20.978;2022-07-23T00:02:47;24.20;99.80
17571;DHT22;8903;52.220;20.978;2022-07-23T00:05:14;24.20;99.90
17571;DHT22;8903;52.220;20.978;2022-07-23T00:07:40;24.10;99.90
17571;DHT22;8903;52.220;20.978;2022-07-23T00:10:08;24.10;99.90
17571;DHT22;8903;52.220;20.978;2022-07-23T00:12:35;24.10;99.90
17571;DHT22;8903;52.220;20.978;2022-07-23T00:15:02;24.10;99.70
17571;DHT22;8903;52.220;20.978;2022-07-23T00:17:30;24.20;99.70
17571;DHT22;8903;52.220;20.978;2022-07-23T00:19:57;24.20;99.80
17571;DHT22;8903;52.220;20.978;2022-07-23T00:22:24;24.20;99.80
17571;DHT22;8903;52.220;20.978;2022-07-23T00:24:50;24.20;99.60
17571;DHT22;8903;52.220;20.978;2022-07-23T00:27:17;24.20;99.90
17571;DHT22;8903;52.220;20.978;2022-07-23T00:29:44;24.10;99.80
17571;DHT22;8903;52.220;20.978;2022-07-23T00:32:10;24.10;99.90
17571;DHT22;8903;52.220;20.978;2022-07-23T00:34:39;24.10;99.90
17571;DHT22;8903;52.220;20.978;2022-07-23T00:37:05;24.10;99.90
17571;DHT22;8903;52.220;20.978;2022-07-23T00:39:32;24.10;99.90
17571;DHT22;8903;52.220;20.978;2022-07-23T00:41:59;24.00;99.90
17571;DHT22;8903;52.220;20.978;2022-07-23T00:44:26;24.00;99.90
17571;DHT22;8903;52.220;20.978;2022-07-23T00:46:54;23.90;99.90
17571;DHT22;8903;52.220;20.978;2022-07-23T00:49:21;23.90;99.90
17571;DHT22;8903;52.220;20.978;2022-07-23T00:51:50;23.90;99.90
17571;DHT22;8903;52.220;20.978;2022-07-23T00:54:17;23.80;99.90
17571;DHT22;8903;52.220;20.978;2022-07-23T00:56:43;23.80;99.90
17571;DHT22;8903;52.220;20.978;2022-07-23T00:59:10;23.70;99.90
17571;DHT22;8903;52.220;20.978;2022-07-23T01:01:37;23.70;99.90
17571;DHT22;8903;52.220;20.978;2022-07-23T01:04:04;23.70;99.90
17571;DHT22;8903;52.220;20.978;2022-07-23T01:06:31;23.60;99.90
17571;DHT22;8903;52.220;20.978;2022-07-23T01:09:02;23.60;99.90
17571;DHT22;8903;52.220;20.978;2022-07-23T01:11:29;23.50;99.90
17571;DHT22;8903;52.220;20.978;2022-07-23T01:13:56;23.50;99.90
17571;DHT22;8903;52.220;20.978;2022-07-23T01:16:22;23.50;99.90
17571;DHT22;8903;52.220;20.978;2022-07-23T01:18:49;23.40;99.90
17571;DHT22;8903;52.220;20.978;2022-07-23T01:21:16;23.40;99.90
17571;DHT22;8903;52.220;20.978;2022-07-23T01:23:45;23.30;99.90
17571;DHT22;8903;52.220;20.978;2022-07-23T01:26:12;23.30;99.90
17571;DHT22;8903;52.220;20.978;2022-07-23T01:28:41;23.40;99.90
17571;DHT22;8903;52.220;20.978;2022-07-23T01:31:08;23.30;99.90
17571;DHT22;8903;52.220;20.978;2022-07-23T01:33:35;23.30;99.90
17571;DHT22;8903;52.220;20.978;2022-07-23T01:36:02;23.20;99.90
17571;DHT22;8903;52.220;20.978;2022-07-23T01:38:28;23.20;99.90
17571;DHT22;8903;52.220;20.978;2022-07-23T01:40:56;23.20;99.90
17571;DHT22;8903;52.220;20.978;2022-07-23T01:43:29;23.10;99.90
17571;DHT22;8903;52.220;20.978;2022-07-23T01:45:56;23.10;99.90
17571;DHT22;8903;52.220;20.978;2022-07-23T01:48:26;23.00;99.90
17571;DHT22;8903;52.220;20.978;2022-07-23T01:51:14;23.00;99.90
17571;DHT22;8903;52.220;20.978;2022-07-23T01:53:43;22.90;99.90
17571;DHT22;8903;52.220;20.978;2022-07-23T01:56:11;22.80;99.90
17571;DHT22;8903;52.220;20.978;2022-07-23T01:58:40;22.70;99.90
17571;DHT22;8903;52.220;20.978;2022-07-23T02:01:07;22.70;99.90
17571;DHT22;8903;52.220;20.978;2022-07-23T02:03:35;22.70;99.90
17571;DHT22;8903;52.220;20.978;2022-07-23T02:06:02;22.60;99.90
17571;DHT22;8903;52.220;20.978;2022-07-23T02:08:29;22.50;99.90
17571;DHT22;8903;52.220;20.978;2022-07-23T02:10:56;22.50;99.90
17571;DHT22;8903;52.220;20.978;2022-07-23T02:13:24;22.50;99.90
17571;DHT22;8903;52.220;20.978;2022-07-23T02:15:50;22.40;99.90
17571;DHT22;8903;52.220;20.978;2022-07-23T02:18:17;22.40;99.90
17571;DHT22;8903;52.220;20.978;2022-07-23T02:20:44;22.30;99.90
17571;DHT22;8903;52.220;20.978;2022-07-23T02:23:10;22.30;99.90
17571;DHT22;8903;52.220;20.978;2022-07-23T02:25:37;22.20;99.90
17571;DHT22;8903;52.220;20.978;2022-07-23T02:28:04;22.20;99.90
17571;DHT22;8903;52.220;20.978;2022-07-23T02:30:32;22.10;99.90
17571;DHT22;8903;52.220;20.978;2022-07-23T02:33:00;22.10;99.90
17571;DHT22;8903;52.220;20.978;2022-07-23T02:35:26;22.00;99.90
17571;DHT22;8903;52.220;20.978;2022-07-23T02:37:55;22.00;99.90
17571;DHT22;8903;52.220;20.978;2022-07-23T02:40:22;21.90;99.90
17571;DHT22;8903;52.220;20.978;2022-07-23T02:42:49;21.90;99.90
17571;DHT22;8903;52.220;20.978;2022-07-23T02:45:15;21.80;99.90
17571;DHT22;8903;52.220;20.978;2022-07-23T02:47:44;21.80;99.90
17571;DHT22;8903;52.220;20.978;2022-07-23T02:50:10;21.80;99.90
17571;DHT22;8903;52.220;20.978;2022-07-23T02:52:38;21.70;99.90
17571;DHT22;8903;52.220;20.978;2022-07-23T02:55:05;21.70;99.90
17571;DHT22;8903;52.220;20.978;2022-07-23T02:57:32;21.70;99.90
17571;DHT22;8903;52.220;20.978;2022-07-23T02:59:58;21.60;99.90
17571;DHT22;8903;52.220;20.978;2022-07-23T03:02:25;21.60;99.90
17571;DHT22;8903;52.220;20.978;2022-07-23T03:04:53;21.60;99.90
17571;DHT22;8903;52.220;20.978;2022-07-23T03:07:20;21.60;99.90
17571;DHT22;8903;52.220;20.978;2022-07-23T03:09:48;21.60;99.90
17571;DHT22;8903;52.220;20.978;2022-07-23T03:12:14;21.60;99.90
17571;DHT22;8903;52.220;20.978;2022-07-23T03:14:42;21.50;99.90
17571;DHT22;8903;52.220;20.978;2022-07-23T03:17:08;21.50;99.90
17571;DHT22;8903;52.220;20.978;2022-07-23T03:19:35;21.50;99.90
17571;DHT22;8903;52.220;20.978;2022-07-23T03:22:04;21.50;99.90
17571;DHT22;8903;52.220;20.978;2022-07-23T03:24:31;21.50;99.90
17571;DHT22;8903;52.220;20.978;2022-07-23T03:27:13;21.50;99.90
17571;DHT22;8903;52.220;20.978;2022-07-23T03:29:39;21.50;99.90
17571;DHT22;8903;52.220;20.978;2022-07-23T03:32:06;21.50;99.90
17571;DHT22;8903;52.220;20.978;2022-07-23T03:34:33;21.60;99.90
17571;DHT22;8903;52.220;20.978;2022-07-23T03:37:00;21.50;99.90
17571;DHT22;8903;52.220;20.978;2022-07-23T03:39:28;21.60;99.90
17571;DHT22;8903;52.220;20.978;2022-07-23T03:41:55;21.50;99.90
17571;DHT22;8903;52.220;20.978;2022-07-23T03:44:21;21.50;99.90
17571;DHT22;8903;52.220;20.978;2022-07-23T03:46:48;21.40;99.90
17571;DHT22;8903;52.220;20.978;2022-07-23T03:49:15;21.40;99.90
17571;DHT22;8903;52.220;20.978;2022-07-23T03:51:42;21.50;99.90
17571;DHT22;8903;52.220;20.978;2022-07-23T03:54:09;21.50;99.90
17571;DHT22;8903;52.220;20.978;2022-07-23T03:56:37;21.40;99.90
17571;DHT22;8903;52.220;20.978;2022-07-23T03:59:03;21.40;99.90
17571;DHT22;8903;52.220;20.978;2022-07-23T04:01:30;21.40;99.90
17571;DHT22;8903;52.220;20.978;2022-07-23T04:03:58;21.40;99.90
17571;DHT22;8903;52.220;20.978;2022-07-23T04:06:24;21.40;99.90
17571;DHT22;8903;52.220;20.978;2022-07-23T04:08:53;21.40;99.90
17571;DHT22;8903;52.220;20.978;2022-07-23T04:11:19;21.50;99.90
17571;DHT22;8903;52.220;20.978;2022-07-23T04:13:48;21.50;99.90
17571;DHT22;8903;52.220;20.978;2022-07-23T04:16:15;21.50;99.90
17571;DHT22;8903;52.220;20.978;2022-07-23T04:18:42;21.50;99.90
17571;DHT22;8903;52.220;20.978;2022-07-23T04:21:14;21.50;99.90
17571;DHT22;8903;52.220;20.978;2022-07-23T04:23:41;21.60;99.90
17571;DHT22;8903;52.220;20.978;2022-07-23T04:26:09;21.60;99.90
17571;DHT22;8903;52.220;20.978;2022-07-23T04:28:36;21.70;99.90
17571;DHT22;8903;52.220;20.978;2022-07-23T04:31:05;21.80;99.90
17571;DHT22;8903;52.220;20.978;2022-07-23T04:33:33;21.90;99.90
17571;DHT22;8903;52.220;20.978;2022-07-23T04:36:05;21.90;99.90
17571;DHT22;8903;52.220;20.978;2022-07-23T04:38:31;22.00;99.90
17571;DHT22;8903;52.220;20.978;2022-07-23T04:41:01;22.10;99.90
17571;DHT22;8903;52.220;20.978;2022-07-23T04:43:28;22.20;99.90
17571;DHT22;8903;52.220;20.978;2022-07-23T04:45:55;22.20;99.90
17571;DHT22;8903;52.220;20.978;2022-07-23T04:48:23;22.20;99.90
17571;DHT22;8903;52.220;20.978;2022-07-23T04:50:57;22.20;99.90
17571;DHT22;8903;52.220;20.978;2022-07-23T04:53:27;22.30;99.90
17571;DHT22;8903;52.220;20.978;2022-07-23T04:55:58;22.50;99.90
17571;DHT22;8903;52.220;20.978;2022-07-23T04:58:25;22.40;99.90
17571;DHT22;8903;52.220;20.978;2022-07-23T05:00:51;22.50;99.90
17571;DHT22;8903;52.220;20.978;2022-07-23T05:03:18;22.60;99.90
17571;DHT22;8903;52.220;20.978;2022-07-23T05:05:48;22.70;99.90
17571;DHT22;8903;52.220;20.978;2022-07-23T05:08:17;22.80;99.90
17571;DHT22;8903;52.220;20.978;2022-07-23T05:10:49;22.90;99.90
17571;DHT22;8903;52.220;20.978;2022-07-23T05:13:16;23.00;99.90
17571;DHT22;8903;52.220;20.978;2022-07-23T05:15:43;23.10;99.90
17571;DHT22;8903;52.220;20.978;2022-07-23T05:18:10;23.10;99.90
17571;DHT22;8903;52.220;20.978;2022-07-23T05:20:37;23.20;99.90
17571;DHT22;8903;52.220;20.978;2022-07-23T05:23:06;23.20;99.90
17571;DHT22;8903;52.220;20.978;2022-07-23T05:25:33;23.20;99.90
17571;DHT22;8903;52.220;20.978;2022-07-23T05:28:00;23.40;99.90
17571;DHT22;8903;52.220;20.978;2022-07-23T05:30:27;23.50;99.90
17571;DHT22;8903;52.220;20.978;2022-07-23T05:32:58;23.70;99.90
17571;DHT22;8903;52.220;20.978;2022-07-23T05:35:25;23.80;99.90
17571;DHT22;8903;52.220;20.978;2022-07-23T05:38:10;23.90;99.90
17571;DHT22;8903;52.220;20.978;2022-07-23T05:40:38;23.80;99.90
17571;DHT22;8903;52.220;20.978;2022-07-23T05:43:05;23.80;99.90
17571;DHT22;8903;52.220;20.978;2022-07-23T05:45:33;23.90;99.90
17571;DHT22;8903;52.220;20.978;2022-07-23T05:48:00;24.00;99.90
17571;DHT22;8903;52.220;20.978;2022-07-23T05:50:33;24.10;99.90
17571;DHT22;8903;52.220;20.978;2022-07-23T05:53:07;24.10;99.90
17571;DHT22;8903;52.220;20.978;2022-07-23T05:56:00;24.10;99.90
17571;DHT22;8903;52.220;20.978;2022-07-23T05:58:29;24.30;99.90
17571;DHT22;8903;52.220;20.978;2022-07-23T06:00:56;24.40;99.90
17571;DHT22;8903;52.220;20.978;2022-07-23T06:03:22;24.50;99.90
17571;DHT22;8903;52.220;20.978;2022-07-23T06:05:49;24.60;99.90
17571;DHT22;8903;52.220;20.978;2022-07-23T06:08:16;24.70;99.90
17571;DHT22;8903;52.220;20.978;2022-07-23T06:10:44;24.80;99.90
17571;DHT22;8903;52.220;20.978;2022-07-23T06:13:12;24.80;99.90
17571;DHT22;8903;52.220;20.978;2022-07-23T06:15:40;24.90;99.90
17571;DHT22;8903;52.220;20.978;2022-07-23T06:18:06;25.00;99.90
17571;DHT22;8903;52.220;20.978;2022-07-23T06:20:33;25.10;99.90
17571;DHT22;8903;52.220;20.978;2022-07-23T06:23:00;25.10;99.90
17571;DHT22;8903;52.220;20.978;2022-07-23T06:25:27;25.30;99.90
17571;DHT22;8903;52.220;20.978;2022-07-23T06:27:54;25.40;99.90
17571;DHT22;8903;52.220;20.978;2022-07-23T06:30:22;25.50;99.90
17571;DHT22;8903;52.220;20.978;2022-07-23T06:32:49;25.70;99.90
17571;DHT22;8903;52.220;20.978;2022-07-23T06:35:16;25.90;99.90
17571;DHT22;8903;52.220;20.978;2022-07-23T06:37:45;26.10;99.90
17571;DHT22;8903;52.220;20.978;2022-07-23T06:40:12;26.30;99.90
17571;DHT22;8903;52.220;20.978;2022-07-23T06:42:39;26.50;99.90
17571;DHT22;8903;52.220;20.978;2022-07-23T06:45:06;26.60;99.90
17571;DHT22;8903;52.220;20.978;2022-07-23T06:47:37;26.70;99.70
17571;DHT22;8903;52.220;20.978;2022-07-23T06:50:05;26.80;99.70
17571;DHT22;8903;52.220;20.978;2022-07-23T06:52:31;26.80;99.20
17571;DHT22;8903;52.220;20.978;2022-07-23T06:54:58;26.70;99.20
17571;DHT22;8903;52.220;20.978;2022-07-23T06:57:25;26.70;99.10
17571;DHT22;8903;52.220;20.978;2022-07-23T06:59:51;26.80;99.20
17571;DHT22;8903;52.220;20.978;2022-07-23T07:02:18;26.80;98.90
17571;DHT22;8903;52.220;20.978;2022-07-23T07:04:48;26.80;99.00
17571;DHT22;8903;52.220;20.978;2022-07-23T07:07:15;26.80;99.20
17571;DHT22;8903;52.220;20.978;2022-07-23T07:09:41;26.90;98.80
17571;DHT22;8903;52.220;20.978;2022-07-23T07:12:09;27.00;98.80
17571;DHT22;8903;52.220;20.978;2022-07-23T07:14:37;27.00;99.00
17571;DHT22;8903;52.220;20.978;2022-07-23T07:17:04;27.00;99.40
17571;DHT22;8903;52.220;20.978;2022-07-23T07:19:30;27.10;99.20
17571;DHT22;8903;52.220;20.978;2022-07-23T07:21:58;27.30;98.70
17571;DHT22;8903;52.220;20.978;2022-07-23T07:24:25;27.40;97.70
17571;DHT22;8903;52.220;20.978;2022-07-23T07:26:52;27.40;97.80
17571;DHT22;8903;52.220;20.978;2022-07-23T07:29:19;27.50;97.50
17571;DHT22;8903;52.220;20.978;2022-07-23T07:31:45;27.40;98.00
17571;DHT22;8903;52.220;20.978;2022-07-23T07:34:12;27.40;97.60
17571;DHT22;8903;52.220;20.978;2022-07-23T07:36:38;27.30;97.90
17571;DHT22;8903;52.220;20.978;2022-07-23T07:39:06;27.30;97.90
17571;DHT22;8903;52.220;20.978;2022-07-23T07:41:35;27.30;97.90
17571;DHT22;8903;52.220;20.978;2022-07-23T07:44:02;27.30;97.90
17571;DHT22;8903;52.220;20.978;2022-07-23T07:46:29;27.50;98.20
17571;DHT22;8903;52.220;20.978;2022-07-23T07:48:55;27.60;97.90
17571;DHT22;8903;52.220;20.978;2022-07-23T07:51:22;27.60;97.70
17571;DHT22;8903;52.220;20.978;2022-07-23T07:53:49;27.70;97.70
17571;DHT22;8903;52.220;20.978;2022-07-23T07:56:17;27.70;97.50
17571;DHT22;8903;52.220;20.978;2022-07-23T07:58:43;27.90;97.50
17571;DHT22;8903;52.220;20.978;2022-07-23T08:01:10;27.90;97.20
17571;DHT22;8903;52.220;20.978;2022-07-23T08:03:37;28.00;97.20
17571;DHT22;8903;52.220;20.978;2022-07-23T08:06:03;28.10;97.20
17571;DHT22;8903;52.220;20.978;2022-07-23T08:08:30;28.20;96.90
17571;DHT22;8903;52.220;20.978;2022-07-23T08:10:57;28.20;96.90
17571;DHT22;8903;52.220;20.978;2022-07-23T08:13:25;28.40;97.10
17571;DHT22;8903;52.220;20.978;2022-07-23T08:15:51;28.40;97.10
17571;DHT22;8903;52.220;20.978;2022-07-23T08:18:19;28.40;97.30
17571;DHT22;8903;52.220;20.978;2022-07-23T08:20:46;28.40;97.50
17571;DHT22;8903;52.220;20.978;2022-07-23T08:23:12;28.50;97.40
17571;DHT22;8903;52.220;20.978;2022-07-23T08:25:40;28.50;97.70
17571;DHT22;8903;52.220;20.978;2022-07-23T08:28:07;28.60;97.40
17571;DHT22;8903;52.220;20.978;2022-07-23T08:30:35;28.60;97.00
17571;DHT22;8903;52.220;20.978;2022-07-23T08:33:03;28.60;97.10
17571;DHT22;8903;52.220;20.978;2022-07-23T08:35:30;28.70;97.20
17571;DHT22;8903;52.220;20.978;2022-07-23T08:37:57;28.60;96.50
17571;DHT22;8903;52.220;20.978;2022-07-23T08:40:26;28.20;97.00
17571;DHT22;8903;52.220;20.978;2022-07-23T08:42:53;28.20;97.30
17571;DHT22;8903;52.220;20.978;2022-07-23T08:45:20;28.30;96.70
17571;DHT22;8903;52.220;20.978;2022-07-23T08:47:52;28.50;96.60
17571;DHT22;8903;52.220;20.978;2022-07-23T08:50:19;28.60;96.40
17571;DHT22;8903;52.220;20.978;2022-07-23T08:52:46;28.70;96.70
17571;DHT22;8903;52.220;20.978;2022-07-23T08:55:13;28.80;96.70
17571;DHT22;8903;52.220;20.978;2022-07-23T08:57:39;28.70;96.50
17571;DHT22;8903;52.220;20.978;2022-07-23T09:00:06;28.80;96.60
17571;DHT22;8903;52.220;20.978;2022-07-23T09:02:38;28.90;96.40
17571;DHT22;8903;52.220;20.978;2022-07-23T09:05:06;29.00;95.80
17571;DHT22;8903;52.220;20.978;2022-07-23T09:07:33;29.20;95.90
17571;DHT22;8903;52.220;20.978;2022-07-23T09:10:07;29.30;95.80
17571;DHT22;8903;52.220;20.978;2022-07-23T09:12:34;29.00;95.30
17571;DHT22;8903;52.220;20.978;2022-07-23T09:15:04;29.10;95.40
17571;DHT22;8903;52.220;20.978;2022-07-23T09:17:36;29.00;94.80
17571;DHT22;8903;52.220;20.978;2022-07-23T09:20:11;28.90;95.50
17571;DHT22;8903;52.220;20.978;2022-07-23T09:22:38;28.70;95.50
17571;DHT22;8903;52.220;20.978;2022-07-23T09:25:07;28.60;95.70
17571;DHT22;8903;52.220;20.978;2022-07-23T09:27:48;28.80;95.70
17571;DHT22;8903;52.220;20.978;2022-07-23T09:30:15;28.90;95.30
17571;DHT22;8903;52.220;20.978;2022-07-23T09:32:41;28.90;95.40
17571;DHT22;8903;52.220;20.978;2022-07-23T09:35:08;29.10;95.20
17571;DHT22;8903;52.220;20.978;2022-07-23T09:37:36;29.30;94.90
17571;DHT22;8903;52.220;20.978;2022-07-23T09:40:04;29.50;94.10
17571;DHT22;8903;52.220;20.978;2022-07-23T09:42:31;29.40;93.80
17571;DHT22;8903;52.220;20.978;2022-07-23T09:44:58;29.10;94.10
17571;DHT22;8903;52.220;20.978;2022-07-23T09:47:25;29.20;93.40
17571;DHT22;8903;52.220;20.978;2022-07-23T09:49:59;29.20;93.50
17571;DHT22;8903;52.220;20.978;2022-07-23T09:52:26;29.10;94.10
17571;DHT22;8903;52.220;20.978;2022-07-23T09:54:58;29.30;94.50
17571;DHT22;8903;52.220;20.978;2022-07-23T09:57:25;29.50;93.70
17571;DHT22;8903;52.220;20.978;2022-07-23T09:59:52;29.60;93.30
17571;DHT22;8903;52.220;20.978;2022-07-23T10:02:20;29.80;93.50
17571;DHT22;8903;52.220;20.978;2022-07-23T10:05:05;29.90;92.80
17571;DHT22;8903;52.220;20.978;2022-07-23T10:07:53;30.00;92.40
17571;DHT22;8903;52.220;20.978;2022-07-23T10:10:48;30.00;91.40
17571;DHT22;8903;52.220;20.978;2022-07-23T10:13:39;30.10;91.00
17571;DHT22;8903;52.220;20.978;2022-07-23T10:16:27;30.30;91.60
17571;DHT22;8903;52.220;20.978;2022-07-23T10:18:54;30.40;91.90
17571;DHT22;8903;52.220;20.978;2022-07-23T10:21:22;30.20;91.70
17571;DHT22;8903;52.220;20.978;2022-07-23T10:23:52;30.10;92.10
17571;DHT22;8903;52.220;20.978;2022-07-23T10:26:29;30.20;90.60
17571;DHT22;8903;52.220;20.978;2022-07-23T10:29:01;30.30;90.50
17571;DHT22;8903;52.220;20.978;2022-07-23T10:31:31;30.40;91.90
17571;DHT22;8903;52.220;20.978;2022-07-23T10:34:02;30.50;92.30
17571;DHT22;8903;52.220;20.978;2022-07-23T10:36:37;30.60;91.80
17571;DHT22;8903;52.220;20.978;2022-07-23T10:39:07;30.60;91.30
17571;DHT22;8903;52.220;20.978;2022-07-23T10:41:37;30.60;90.80
17571;DHT22;8903;52.220;20.978;2022-07-23T10:44:07;30.70;90.30
17571;DHT22;8903;52.220;20.978;2022-07-23T10:46:34;30.80;90.20
17571;DHT22;8903;52.220;20.978;2022-07-23T10:49:20;30.90;90.50
17571;DHT22;8903;52.220;20.978;2022-07-23T10:54:29;31.10;91.00
17571;DHT22;8903;52.220;20.978;2022-07-23T10:57:07;31.20;90.50
17571;DHT22;8903;52.220;20.978;2022-07-23T11:02:20;31.10;90.10
17571;DHT22;8903;52.220;20.978;2022-07-23T11:04:50;31.20;90.00
17571;DHT22;8903;52.220;20.978;2022-07-23T11:07:17;31.00;90.30
17571;DHT22;8903;52.220;20.978;2022-07-23T11:09:44;31.00;90.60
17571;DHT22;8903;52.220;20.978;2022-07-23T11:15:03;31.00;90.80
17571;DHT22;8903;52.220;20.978;2022-07-23T11:17:30;31.10;90.70
17571;DHT22;8903;52.220;20.978;2022-07-23T11:20:12;31.10;90.60
17571;DHT22;8903;52.220;20.978;2022-07-23T11:22:46;31.10;90.70
17571;DHT22;8903;52.220;20.978;2022-07-23T11:25:13;31.20;90.80
17571;DHT22;8903;52.220;20.978;2022-07-23T11:27:40;31.40;91.00
17571;DHT22;8903;52.220;20.978;2022-07-23T11:30:09;31.60;90.50
17571;DHT22;8903;52.220;20.978;2022-07-23T11:32:37;31.80;90.60
17571;DHT22;8903;52.220;20.978;2022-07-23T11:35:22;34.30;88.00
17571;DHT22;8903;52.220;20.978;2022-07-23T11:37:49;36.50;83.00
17571;DHT22;8903;52.220;20.978;2022-07-23T11:40:19;36.70;80.00
17571;DHT22;8903;52.220;20.978;2022-07-23T11:42:51;36.40;79.50
17571;DHT22;8903;52.220;20.978;2022-07-23T11:45:19;36.00;80.00
17571;DHT22;8903;52.220;20.978;2022-07-23T11:47:46;36.10;80.90
17571;DHT22;8903;52.220;20.978;2022-07-23T11:50:12;36.20;81.10
17571;DHT22;8903;52.220;20.978;2022-07-23T11:52:39;35.80;81.90
17571;DHT22;8903;52.220;20.978;2022-07-23T11:55:07;35.20;83.30
17571;DHT22;8903;52.220;20.978;2022-07-23T11:57:35;34.80;83.70
17571;DHT22;8903;52.220;20.978;2022-07-23T12:00:03;34.90;84.70
17571;DHT22;8903;52.220;20.978;2022-07-23T12:02:39;35.10;83.30
17571;DHT22;8903;52.220;20.978;2022-07-23T12:05:06;34.50;83.20
17571;DHT22;8903;52.220;20.978;2022-07-23T12:07:35;34.70;84.10
17571;DHT22;8903;52.220;20.978;2022-07-23T12:10:03;34.00;84.80
17571;DHT22;8903;52.220;20.978;2022-07-23T12:12:34;33.60;85.00
17571;DHT22;8903;52.220;20.978;2022-07-23T12:15:02;33.80;84.60
17571;DHT22;8903;52.220;20.978;2022-07-23T12:17:29;34.10;83.90
17571;DHT22;8903;52.220;20.978;2022-07-23T12:19:58;35.00;82.30
17571;DHT22;8903;52.220;20.978;2022-07-23T12:22:26;35.70;80.50
17571;DHT22;8903;52.220;20.978;2022-07-23T12:24:56;36.70;79.20
17571;DHT22;8903;52.220;20.978;2022-07-23T12:27:24;37.40;78.50
17571;DHT22;8903;52.220;20.978;2022-07-23T12:29:51;37.60;79.20
17571;DHT22;8903;52.220;20.978;2022-07-23T12:32:18;36.90;78.80
17571;DHT22;8903;52.220;20.978;2022-07-23T12:34:45;37.10;79.20
17571;DHT22;8903;52.220;20.978;2022-07-23T12:37:27;37.30;79.20
17571;DHT22;8903;52.220;20.978;2022-07-23T12:39:53;38.00;77.00
17571;DHT22;8903;52.220;20.978;2022-07-23T12:42:20;38.40;76.70
17571;DHT22;8903;52.220;20.978;2022-07-23T12:45:04;39.80;74.10
17571;DHT22;8903;52.220;20.978;2022-07-23T12:47:30;40.80;71.10
17571;DHT22;8903;52.220;20.978;2022-07-23T12:50:30;40.90;69.80
17571;DHT22;8903;52.220;20.978;2022-07-23T12:53:02;41.20;69.60
17571;DHT22;8903;52.220;20.978;2022-07-23T12:55:29;42.10;68.30
17571;DHT22;8903;52.220;20.978;2022-07-23T12:58:02;42.40;67.20
17571;DHT22;8903;52.220;20.978;2022-07-23T13:00:29;42.50;66.10
17571;DHT22;8903;52.220;20.978;2022-07-23T13:02:56;41.70;66.90
17571;DHT22;8903;52.220;20.978;2022-07-23T13:05:22;39.30;70.80
17571;DHT22;8903;52.220;20.978;2022-07-23T13:07:49;38.10;73.10
17571;DHT22;8903;52.220;20.978;2022-07-23T13:10:17;36.80;76.00
17571;DHT22;8903;52.220;20.978;2022-07-23T13:12:44;36.30;76.90
17571;DHT22;8903;52.220;20.978;2022-07-23T13:15:10;35.80;77.90
17571;DHT22;8903;52.220;20.978;2022-07-23T13:17:37;35.40;79.20
17571;DHT22;8903;52.220;20.978;2022-07-23T13:20:04;35.60;79.30
17571;DHT22;8903;52.220;20.978;2022-07-23T13:22:32;35.30;80.50
17571;DHT22;8903;52.220;20.978;2022-07-23T13:24:59;35.20;78.80
17571;DHT22;8903;52.220;20.978;2022-07-23T13:27:27;35.60;77.70
17571;DHT22;8903;52.220;20.978;2022-07-23T13:29:54;35.90;78.30
17571;DHT22;8903;52.220;20.978;2022-07-23T13:32:20;36.00;77.90
17571;DHT22;8903;52.220;20.978;2022-07-23T13:34:50;35.90;77.20
17571;DHT22;8903;52.220;20.978;2022-07-23T13:37:16;35.60;77.80
17571;DHT22;8903;52.220;20.978;2022-07-23T13:39:43;35.70;78.30
17571;DHT22;8903;52.220;20.978;2022-07-23T13:42:09;35.60;78.10
17571;DHT22;8903;52.220;20.978;2022-07-23T13:44:37;35.80;77.90
17571;DHT22;8903;52.220;20.978;2022-07-23T13:47:04;36.10;77.80
17571;DHT22;8903;52.220;20.978;2022-07-23T13:49:31;36.10;77.30
17571;DHT22;8903;52.220;20.978;2022-07-23T13:51:58;36.30;77.20
17571;DHT22;8903;52.220;20.978;2022-07-23T13:54:24;36.40;77.10
17571;DHT22;8903;52.220;20.978;2022-07-23T13:56:51;36.00;77.50
17571;DHT22;8903;52.220;20.978;2022-07-23T13:59:18;35.60;79.10
17571;DHT22;8903;52.220;20.978;2022-07-23T14:01:46;35.10;79.70
17571;DHT22;8903;52.220;20.978;2022-07-23T14:04:12;34.20;80.70
17571;DHT22;8903;52.220;20.978;2022-07-23T14:06:39;33.70;82.50
17571;DHT22;8903;52.220;20.978;2022-07-23T14:09:06;33.40;83.30
17571;DHT22;8903;52.220;20.978;2022-07-23T14:11:32;32.90;83.90
17571;DHT22;8903;52.220;20.978;2022-07-23T14:13:59;32.60;84.50
17571;DHT22;8903;52.220;20.978;2022-07-23T14:16:27;32.20;85.70
17571;DHT22;8903;52.220;20.978;2022-07-23T14:18:55;32.10;85.90
17571;DHT22;8903;52.220;20.978;2022-07-23T14:21:22;32.00;85.80
17571;DHT22;8903;52.220;20.978;2022-07-23T14:23:48;32.00;86.10
17571;DHT22;8903;52.220;20.978;2022-07-23T14:26:15;31.90;86.00
17571;DHT22;8903;52.220;20.978;2022-07-23T14:28:42;31.80;86.50
17571;DHT22;8903;52.220;20.978;2022-07-23T14:31:08;31.70;86.60
17571;DHT22;8903;52.220;20.978;2022-07-23T14:33:35;31.60;86.40
17571;DHT22;8903;52.220;20.978;2022-07-23T14:36:03;31.50;86.50
17571;DHT22;8903;52.220;20.978;2022-07-23T14:38:30;31.30;87.60
17571;DHT22;8903;52.220;20.978;2022-07-23T14:40:57;30.10;93.70
17571;DHT22;8903;52.220;20.978;2022-07-23T14:43:24;28.30;96.40
17571;DHT22;8903;52.220;20.978;2022-07-23T14:45:50;26.80;99.40
17571;DHT22;8903;52.220;20.978;2022-07-23T14:48:17;26.10;99.90
17571;DHT22;8903;52.220;20.978;2022-07-23T14:50:44;25.40;99.90
17571;DHT22;8903;52.220;20.978;2022-07-23T14:53:12;24.90;99.90
17571;DHT22;8903;52.220;20.978;2022-07-23T14:55:38;24.50;99.90
17571;DHT22;8903;52.220;20.978;2022-07-23T14:58:05;23.90;99.90
17571;DHT22;8903;52.220;20.978;2022-07-23T15:00:31;22.70;99.90
17571;DHT22;8903;52.220;20.978;2022-07-23T15:20:49;21.20;99.90
17571;DHT22;8903;52.220;20.978;2022-07-23T15:23:16;20.40;99.90
17571;DHT22;8903;52.220;20.978;2022-07-23T15:28:00;20.30;99.90
17571;DHT22;8903;52.220;20.978;2022-07-23T15:30:27;20.50;99.90
17571;DHT22;8903;52.220;20.978;2022-07-23T15:32:54;20.50;99.90
17571;DHT22;8903;52.220;20.978;2022-07-23T15:37:42;20.40;99.90
17571;DHT22;8903;52.220;20.978;2022-07-23T15:41:28;20.50;99.90
17571;DHT22;8903;52.220;20.978;2022-07-23T15:43:55;20.50;99.90
17571;DHT22;8903;52.220;20.978;2022-07-23T15:46:22;21.00;99.90
17571;DHT22;8903;52.220;20.978;2022-07-23T15:48:49;20.90;99.90
17571;DHT22;8903;52.220;20.978;2022-07-23T15:51:15;21.00;99.90
17571;DHT22;8903;52.220;20.978;2022-07-23T15:53:42;21.20;99.90
17571;DHT22;8903;52.220;20.978;2022-07-23T15:56:09;21.10;99.90
17571;DHT22;8903;52.220;20.978;2022-07-23T15:58:37;21.70;99.90
17571;DHT22;8903;52.220;20.978;2022-07-23T16:01:04;22.20;99.90
17571;DHT22;8903;52.220;20.978;2022-07-23T16:03:32;22.80;99.90
17571;DHT22;8903;52.220;20.978;2022-07-23T16:05:59;22.70;99.90
17571;DHT22;8903;52.220;20.978;2022-07-23T16:08:25;22.70;99.90